createdAt,value
2018-06-27T00:03:11.206Z,14.55
2018-06-27T00:09:17.066Z,14.44
2018-06-27T00:15:24.001Z,14.55
2018-06-27T00:21:30.043Z,14.58
2018-06-27T00:27:36.026Z,14.69
2018-06-27T00:33:42.087Z,14.79
2018-06-27T00:39:47.816Z,14.76
2018-06-27T00:45:54.658Z,14.83
2018-06-27T00:52:00.468Z,14.67
2018-06-27T00:58:07.082Z,14.59
2018-06-27T01:04:12.966Z,14.70
2018-06-27T01:10:18.864Z,14.39
2018-06-27T01:16:25.514Z,14.66
2018-06-27T01:22:31.302Z,14.59
2018-06-27T01:28:37.251Z,14.63
2018-06-27T01:34:43.227Z,14.93
2018-06-27T01:40:48.937Z,15.05
2018-06-27T01:46:54.669Z,15.12
2018-06-27T01:53:00.361Z,15.20
2018-06-27T01:59:06.111Z,15.31
2018-06-27T02:05:12.168Z,15.21
2018-06-27T02:11:17.924Z,14.89
2018-06-27T02:17:23.806Z,14.78
2018-06-27T02:23:29.437Z,14.67
2018-06-27T02:29:35.777Z,14.62
2018-06-27T02:35:41.809Z,14.82
2018-06-27T02:41:47.534Z,14.86
2018-06-27T02:47:54.078Z,15.05
2018-06-27T02:53:59.890Z,14.91
2018-06-27T03:00:07.347Z,14.95
2018-06-27T03:06:13.038Z,14.86
2018-06-27T03:12:19.885Z,15.03
2018-06-27T03:18:25.372Z,14.83
2018-06-27T03:24:31.077Z,14.82
2018-06-27T03:30:36.599Z,14.77
2018-06-27T03:36:42.188Z,14.81
2018-06-27T03:42:48.039Z,14.86
2018-06-27T03:48:54.354Z,15.20
2018-06-27T03:55:00.481Z,15.21
2018-06-27T04:01:07.334Z,15.33
2018-06-27T04:07:13.077Z,15.30
2018-06-27T04:13:22.974Z,15.53
2018-06-27T04:19:28.766Z,15.57
2018-06-27T04:25:34.473Z,15.97
2018-06-27T04:31:40.200Z,16.18
2018-06-27T04:37:45.869Z,16.08
2018-06-27T04:43:51.810Z,16.11
2018-06-27T04:49:57.844Z,16.27
2018-06-27T04:56:03.789Z,16.55
2018-06-27T05:02:09.476Z,16.81
2018-06-27T05:08:15.287Z,16.75
2018-06-27T05:14:22.224Z,16.86
2018-06-27T05:20:28.264Z,16.86
2018-06-27T05:26:34.017Z,17.13
2018-06-27T05:32:39.607Z,16.94
2018-06-27T05:38:45.815Z,17.16
2018-06-27T05:44:52.094Z,17.06
2018-06-27T05:50:58.028Z,17.20
2018-06-27T05:57:03.820Z,17.23
2018-06-27T06:03:09.959Z,17.53
2018-06-27T06:09:15.696Z,17.71
2018-06-27T06:15:21.887Z,17.70
2018-06-27T06:21:27.724Z,17.63
2018-06-27T06:27:33.475Z,17.73
2018-06-27T06:33:39.120Z,17.49
2018-06-27T06:39:45.172Z,17.64
2018-06-27T06:45:51.350Z,17.85
2018-06-27T06:51:57.016Z,17.77
2018-06-27T06:58:02.804Z,18.09
2018-06-27T07:04:08.632Z,18.47
2018-06-27T07:10:14.605Z,18.55
2018-06-27T07:16:20.716Z,18.66
2018-06-27T07:22:26.950Z,19.17
2018-06-27T07:28:32.624Z,19.53
2018-06-27T07:34:38.418Z,19.85
2018-06-27T07:40:44.238Z,20.02
2018-06-27T07:46:50.237Z,20.46
2018-06-27T07:52:55.959Z,20.90
2018-06-27T07:59:01.668Z,21.42
2018-06-27T08:05:07.630Z,21.48
2018-06-27T08:11:13.825Z,21.62
2018-06-27T08:17:20.402Z,22.17
2018-06-27T08:23:25.730Z,22.46
2018-06-27T08:29:31.473Z,22.91
2018-06-27T08:35:37.232Z,23.32
2018-06-27T08:41:42.943Z,23.43
2018-06-27T08:47:48.628Z,23.33
2018-06-27T08:53:55.442Z,22.80
2018-06-27T09:00:01.404Z,23.25
2018-06-27T09:06:07.064Z,23.41
2018-06-27T09:12:13.008Z,24.08
2018-06-27T09:18:18.652Z,24.19
2018-06-27T09:24:24.658Z,24.51
2018-06-27T09:30:30.535Z,25.18
2018-06-27T09:36:36.151Z,24.83
2018-06-27T09:42:41.912Z,24.83
2018-06-27T09:48:47.869Z,25.87
2018-06-27T09:54:57.909Z,25.97
2018-06-27T10:01:03.829Z,26.13
2018-06-27T10:07:09.653Z,25.71
2018-06-27T10:13:15.384Z,26.42
2018-06-27T10:19:21.678Z,26.97
2018-06-27T10:25:27.404Z,26.87
2018-06-27T10:31:33.262Z,26.68
2018-06-27T10:37:39.166Z,27.54
2018-06-27T10:43:44.833Z,27.68
2018-06-27T10:49:50.602Z,27.72
2018-06-27T10:55:56.715Z,27.84
2018-06-27T11:02:02.397Z,27.06
2018-06-27T11:08:08.402Z,26.74
2018-06-27T11:14:14.238Z,26.78
2018-06-27T11:20:20.165Z,27.57
2018-06-27T11:26:26.090Z,28.51
2018-06-27T11:32:31.771Z,28.84
2018-06-27T11:38:37.914Z,29.25
2018-06-27T11:44:43.444Z,28.56
2018-06-27T11:50:49.266Z,29.70
2018-06-27T11:56:55.951Z,29.55
2018-06-27T12:03:01.920Z,28.38
2018-06-27T12:09:11.410Z,27.22
2018-06-27T12:15:17.888Z,27.90
2018-06-27T12:21:24.785Z,28.88
2018-06-27T12:27:30.534Z,29.47
2018-06-27T12:33:36.221Z,30.26
2018-06-27T12:39:41.971Z,29.75
2018-06-27T12:45:47.600Z,28.35
2018-06-27T12:51:54.036Z,29.82
2018-06-27T12:57:59.814Z,28.92
2018-06-27T13:04:05.585Z,27.61
2018-06-27T13:10:11.362Z,27.70
2018-06-27T13:16:17.020Z,27.49
2018-06-27T13:22:26.503Z,27.50
2018-06-27T13:28:32.321Z,29.62
2018-06-27T13:34:38.040Z,28.95
2018-06-27T13:40:43.826Z,27.64
2018-06-27T13:46:49.738Z,29.46
2018-06-27T13:52:56.039Z,28.80
2018-06-27T13:59:01.758Z,27.90
2018-06-27T14:05:07.432Z,29.71
2018-06-27T14:11:13.208Z,31.87
2018-06-27T14:17:19.526Z,29.95
2018-06-27T14:23:25.384Z,27.35
2018-06-27T14:29:31.217Z,27.41
2018-06-27T14:35:36.962Z,27.72
2018-06-27T14:41:42.826Z,29.23
2018-06-27T14:47:48.509Z,30.44
2018-06-27T14:53:54.415Z,30.38
2018-06-27T15:00:00.311Z,29.85
2018-06-27T15:06:06.044Z,29.62
2018-06-27T15:12:11.726Z,29.62
2018-06-27T15:18:17.490Z,28.80
2018-06-27T15:24:23.297Z,27.58
2018-06-27T15:30:29.060Z,27.88
2018-06-27T15:36:34.712Z,30.08
2018-06-27T15:42:40.423Z,30.55
2018-06-27T15:48:46.178Z,30.15
2018-06-27T15:54:53.466Z,31.25
2018-06-27T16:00:59.369Z,30.11
2018-06-27T16:07:05.346Z,28.78
2018-06-27T16:13:11.108Z,29.56
2018-06-27T16:19:16.928Z,29.25
2018-06-27T16:25:23.390Z,28.00
2018-06-27T16:31:29.747Z,26.81
2018-06-27T16:37:35.495Z,26.56
2018-06-27T16:43:41.255Z,27.91
2018-06-27T16:49:46.999Z,32.86
2018-06-27T16:55:53.629Z,30.97
2018-06-27T17:01:59.414Z,29.01
2018-06-27T17:08:05.337Z,27.91
2018-06-27T17:14:11.581Z,27.11
2018-06-27T17:20:17.330Z,27.49
2018-06-27T17:26:23.236Z,29.97
2018-06-27T17:32:28.966Z,28.88
2018-06-27T17:38:34.877Z,27.40
2018-06-27T17:44:40.734Z,26.36
2018-06-27T17:50:46.859Z,27.54
2018-06-27T17:56:53.182Z,29.62
2018-06-27T18:02:59.184Z,32.53
2018-06-27T18:09:07.847Z,34.58
2018-06-27T18:15:13.635Z,35.54
2018-06-27T18:21:19.360Z,36.49
2018-06-27T18:27:25.269Z,36.38
2018-06-27T18:33:31.004Z,36.42
2018-06-27T18:39:36.847Z,36.05
2018-06-27T18:45:42.708Z,35.57
2018-06-27T18:51:48.579Z,34.11
2018-06-27T18:57:54.529Z,30.39
2018-06-27T19:04:00.343Z,27.73
2018-06-27T19:10:07.148Z,26.02
2018-06-27T19:16:13.014Z,24.62
2018-06-27T19:22:19.127Z,23.53
2018-06-27T19:28:24.647Z,22.60
2018-06-27T19:34:30.221Z,21.81
2018-06-27T19:40:36.429Z,21.05
2018-06-27T19:46:42.121Z,20.51
2018-06-27T19:52:47.900Z,20.12
2018-06-27T19:58:54.499Z,19.77
2018-06-27T20:05:00.285Z,19.44
2018-06-27T20:11:05.986Z,19.24
2018-06-27T20:17:11.766Z,19.07
2018-06-27T20:23:17.700Z,18.98
2018-06-27T20:29:25.076Z,18.75
2018-06-27T20:35:30.728Z,18.50
2018-06-27T20:41:36.653Z,18.41
2018-06-27T20:47:42.493Z,18.26
2018-06-27T20:53:48.261Z,18.16
2018-06-27T20:59:55.373Z,18.22
2018-06-27T21:06:01.111Z,18.43
2018-06-27T21:12:07.179Z,18.73
2018-06-27T21:18:12.995Z,18.76
2018-06-27T21:24:18.814Z,18.77
2018-06-27T21:30:26.358Z,18.62
2018-06-27T21:36:32.177Z,17.93
2018-06-27T21:42:38.811Z,17.62
2018-06-27T21:48:44.743Z,17.62
2018-06-27T21:54:50.874Z,17.38
2018-06-27T22:00:57.052Z,17.31
2018-06-27T22:07:02.737Z,17.17
2018-06-27T22:13:09.095Z,17.29
2018-06-27T22:19:14.881Z,17.06
2018-06-27T22:25:20.701Z,17.05
2018-06-27T22:31:26.999Z,17.11
2018-06-27T22:37:32.925Z,17.20
2018-06-27T22:43:38.898Z,17.30
2018-06-27T22:49:52.125Z,16.99
2018-06-27T22:55:58.081Z,17.06
2018-06-27T23:02:03.781Z,16.98
2018-06-27T23:08:10.013Z,17.11
2018-06-27T23:14:16.021Z,16.92
2018-06-27T23:20:22.461Z,16.99
2018-06-27T23:26:28.333Z,16.72
2018-06-27T23:32:34.112Z,16.48
2018-06-27T23:38:39.823Z,16.40
2018-06-27T23:44:45.509Z,16.33
2018-06-27T23:50:52.480Z,16.12
2018-06-27T23:56:58.288Z,15.89
